sensor_id;sensor_type;location;lat;lon;timestamp;temperature;humidity
2489;DHT22;1255;48.716;9.124;2024-01-16T00:01:56;-1.90;99.90
2489;DHT22;1255;48.716;9.124;2024-01-16T00:04:23;-1.90;99.90
2489;DHT22;1255;48.716;9.124;2024-01-16T00:06:52;-1.90;99.90
2489;DHT22;1255;48.716;9.124;2024-01-16T00:09:19;-1.90;99.90
2489;DHT22;1255;48.716;9.124;2024-01-16T00:11:45;-1.80;99.90
2489;DHT22;1255;48.716;9.124;2024-01-16T00:14:12;-1.90;99.90
2489;DHT22;1255;48.716;9.124;2024-01-16T00:16:43;-1.90;99.90
2489;DHT22;1255;48.716;9.124;2024-01-16T00:19:10;-1.80;99.90
2489;DHT22;1255;48.716;9.124;2024-01-16T00:21:39;-1.90;99.90
2489;DHT22;1255;48.716;9.124;2024-01-16T00:24:06;-1.90;99.90
2489;DHT22;1255;48.716;9.124;2024-01-16T00:26:33;-1.90;99.90
2489;DHT22;1255;48.716;9.124;2024-01-16T00:29:00;-2.00;99.90
2489;DHT22;1255;48.716;9.124;2024-01-16T00:31:27;-2.00;99.90
2489;DHT22;1255;48.716;9.124;2024-01-16T00:33:56;-2.00;99.90
2489;DHT22;1255;48.716;9.124;2024-01-16T00:36:23;-2.00;99.90
2489;DHT22;1255;48.716;9.124;2024-01-16T00:38:50;-2.00;99.90
2489;DHT22;1255;48.716;9.124;2024-01-16T00:41:16;-1.90;99.90
2489;DHT22;1255;48.716;9.124;2024-01-16T00:43:43;-1.90;99.90
2489;DHT22;1255;48.716;9.124;2024-01-16T00:46:10;-1.90;99.90
2489;DHT22;1255;48.716;9.124;2024-01-16T00:48:37;-1.90;99.90
2489;DHT22;1255;48.716;9.124;2024-01-16T00:51:05;-1.90;99.90
2489;DHT22;1255;48.716;9.124;2024-01-16T00:53:32;-1.80;99.90
2489;DHT22;1255;48.716;9.124;2024-01-16T00:55:59;-1.80;99.90
2489;DHT22;1255;48.716;9.124;2024-01-16T00:58:26;-1.70;99.90
2489;DHT22;1255;48.716;9.124;2024-01-16T01:00:53;-1.70;99.90
2489;DHT22;1255;48.716;9.124;2024-01-16T01:03:20;-1.60;99.90
2489;DHT22;1255;48.716;9.124;2024-01-16T01:05:46;-1.60;99.90
2489;DHT22;1255;48.716;9.124;2024-01-16T01:08:14;-1.70;99.90
2489;DHT22;1255;48.716;9.124;2024-01-16T01:10:41;-1.60;99.90
2489;DHT22;1255;48.716;9.124;2024-01-16T01:13:08;-1.60;99.90
2489;DHT22;1255;48.716;9.124;2024-01-16T01:15:34;-1.60;99.90
2489;DHT22;1255;48.716;9.124;2024-01-16T01:18:01;-1.60;99.90
2489;DHT22;1255;48.716;9.124;2024-01-16T01:20:29;-1.60;99.90
2489;DHT22;1255;48.716;9.124;2024-01-16T01:22:56;-1.60;99.90
2489;DHT22;1255;48.716;9.124;2024-01-16T01:25:25;-1.60;99.90
2489;DHT22;1255;48.716;9.124;2024-01-16T01:27:52;-1.60;99.90
2489;DHT22;1255;48.716;9.124;2024-01-16T01:30:19;-1.50;99.90
2489;DHT22;1255;48.716;9.124;2024-01-16T01:32:45;-1.50;99.90
2489;DHT22;1255;48.716;9.124;2024-01-16T01:35:12;-1.50;99.90
2489;DHT22;1255;48.716;9.124;2024-01-16T01:37:40;-1.50;99.90
2489;DHT22;1255;48.716;9.124;2024-01-16T01:40:08;-1.50;99.90
2489;DHT22;1255;48.716;9.124;2024-01-16T01:42:36;-1.50;99.90
2489;DHT22;1255;48.716;9.124;2024-01-16T01:45:03;-1.50;99.90
2489;DHT22;1255;48.716;9.124;2024-01-16T01:47:31;-1.50;99.90
2489;DHT22;1255;48.716;9.124;2024-01-16T01:49:58;-1.50;99.90
2489;DHT22;1255;48.716;9.124;2024-01-16T01:52:25;-1.50;99.90
2489;DHT22;1255;48.716;9.124;2024-01-16T01:54:52;-1.50;99.90
2489;DHT22;1255;48.716;9.124;2024-01-16T01:57:19;-1.50;99.90
2489;DHT22;1255;48.716;9.124;2024-01-16T01:59:48;-1.50;99.90
2489;DHT22;1255;48.716;9.124;2024-01-16T02:02:14;-1.50;99.90
2489;DHT22;1255;48.716;9.124;2024-01-16T02:04:43;-1.60;99.90
2489;DHT22;1255;48.716;9.124;2024-01-16T02:07:12;-1.50;99.90
2489;DHT22;1255;48.716;9.124;2024-01-16T02:09:40;-1.50;99.90
2489;DHT22;1255;48.716;9.124;2024-01-16T02:12:07;-1.60;99.90
2489;DHT22;1255;48.716;9.124;2024-01-16T02:14:34;-1.60;99.90
2489;DHT22;1255;48.716;9.124;2024-01-16T02:17:03;-1.60;99.90
2489;DHT22;1255;48.716;9.124;2024-01-16T02:19:29;-1.60;99.90
2489;DHT22;1255;48.716;9.124;2024-01-16T02:22:00;-1.60;99.90
2489;DHT22;1255;48.716;9.124;2024-01-16T02:24:30;-1.60;99.90
2489;DHT22;1255;48.716;9.124;2024-01-16T02:26:57;-1.60;99.90
2489;DHT22;1255;48.716;9.124;2024-01-16T02:29:24;-1.60;99.90
2489;DHT22;1255;48.716;9.124;2024-01-16T02:31:51;-1.60;99.90
2489;DHT22;1255;48.716;9.124;2024-01-16T02:34:18;-1.60;99.90
2489;DHT22;1255;48.716;9.124;2024-01-16T02:36:44;-1.70;99.90
2489;DHT22;1255;48.716;9.124;2024-01-16T02:39:11;-1.70;99.90
2489;DHT22;1255;48.716;9.124;2024-01-16T02:41:39;-1.80;99.90
2489;DHT22;1255;48.716;9.124;2024-01-16T02:44:06;-1.80;99.90
2489;DHT22;1255;48.716;9.124;2024-01-16T02:46:33;-1.80;99.90
2489;DHT22;1255;48.716;9.124;2024-01-16T02:48:59;-1.90;99.90
2489;DHT22;1255;48.716;9.124;2024-01-16T02:51:26;-1.90;99.90
2489;DHT22;1255;48.716;9.124;2024-01-16T02:53:53;-1.90;99.90
2489;DHT22;1255;48.716;9.124;2024-01-16T02:56:20;-1.90;99.90
2489;DHT22;1255;48.716;9.124;2024-01-16T02:58:48;-2.00;99.90
2489;DHT22;1255;48.716;9.124;2024-01-16T03:01:14;-2.00;99.90
2489;DHT22;1255;48.716;9.124;2024-01-16T03:03:42;-2.00;99.90
2489;DHT22;1255;48.716;9.124;2024-01-16T03:06:08;-2.10;99.90
2489;DHT22;1255;48.716;9.124;2024-01-16T03:08:36;-2.10;99.90
2489;DHT22;1255;48.716;9.124;2024-01-16T03:11:02;-2.10;99.90
2489;DHT22;1255;48.716;9.124;2024-01-16T03:13:29;-2.20;99.90
2489;DHT22;1255;48.716;9.124;2024-01-16T03:15:57;-2.30;99.90
2489;DHT22;1255;48.716;9.124;2024-01-16T03:18:24;-2.40;99.90
2489;DHT22;1255;48.716;9.124;2024-01-16T03:20:51;-2.40;99.90
2489;DHT22;1255;48.716;9.124;2024-01-16T03:23:18;-2.50;99.90
2489;DHT22;1255;48.716;9.124;2024-01-16T03:25:45;-2.50;99.90
2489;DHT22;1255;48.716;9.124;2024-01-16T03:28:11;-2.50;99.90
2489;DHT22;1255;48.716;9.124;2024-01-16T03:30:39;-2.60;99.90
2489;DHT22;1255;48.716;9.124;2024-01-16T03:33:07;-2.60;99.90
2489;DHT22;1255;48.716;9.124;2024-01-16T03:35:33;-2.60;99.90
2489;DHT22;1255;48.716;9.124;2024-01-16T03:38:00;-2.70;99.90
2489;DHT22;1255;48.716;9.124;2024-01-16T03:40:26;-2.70;99.90
2489;DHT22;1255;48.716;9.124;2024-01-16T03:42:53;-2.80;99.90
2489;DHT22;1255;48.716;9.124;2024-01-16T03:45:20;-2.80;99.90
2489;DHT22;1255;48.716;9.124;2024-01-16T03:47:47;-2.90;99.90
2489;DHT22;1255;48.716;9.124;2024-01-16T03:50:17;-2.90;99.90
2489;DHT22;1255;48.716;9.124;2024-01-16T03:52:43;-3.00;99.90
2489;DHT22;1255;48.716;9.124;2024-01-16T03:55:10;-3.00;99.90
2489;DHT22;1255;48.716;9.124;2024-01-16T03:57:37;-3.00;99.90
2489;DHT22;1255;48.716;9.124;2024-01-16T04:00:04;-3.10;99.90
2489;DHT22;1255;48.716;9.124;2024-01-16T04:02:31;-3.10;99.90
2489;DHT22;1255;48.716;9.124;2024-01-16T04:04:58;-3.10;99.90
2489;DHT22;1255;48.716;9.124;2024-01-16T04:07:26;-3.10;99.90
2489;DHT22;1255;48.716;9.124;2024-01-16T04:09:53;-3.20;99.90
2489;DHT22;1255;48.716;9.124;2024-01-16T04:12:20;-3.20;99.90
2489;DHT22;1255;48.716;9.124;2024-01-16T04:14:46;-3.30;99.90
2489;DHT22;1255;48.716;9.124;2024-01-16T04:17:13;-3.30;99.90
2489;DHT22;1255;48.716;9.124;2024-01-16T04:19:40;-3.30;99.90
2489;DHT22;1255;48.716;9.124;2024-01-16T04:22:07;-3.30;99.90
2489;DHT22;1255;48.716;9.124;2024-01-16T04:24:35;-3.40;99.90
2489;DHT22;1255;48.716;9.124;2024-01-16T04:27:03;-3.30;99.90
2489;DHT22;1255;48.716;9.124;2024-01-16T04:29:29;-3.30;99.90
2489;DHT22;1255;48.716;9.124;2024-01-16T04:31:56;-3.30;99.90
2489;DHT22;1255;48.716;9.124;2024-01-16T04:34:23;-3.30;99.90
2489;DHT22;1255;48.716;9.124;2024-01-16T04:36:50;-3.30;99.90
2489;DHT22;1255;48.716;9.124;2024-01-16T04:39:17;-3.30;99.90
2489;DHT22;1255;48.716;9.124;2024-01-16T04:41:45;-3.30;99.90
2489;DHT22;1255;48.716;9.124;2024-01-16T04:44:11;-3.30;99.90
2489;DHT22;1255;48.716;9.124;2024-01-16T04:46:38;-3.30;99.90
2489;DHT22;1255;48.716;9.124;2024-01-16T04:49:05;-3.40;99.90
2489;DHT22;1255;48.716;9.124;2024-01-16T04:51:32;-3.40;99.90
2489;DHT22;1255;48.716;9.124;2024-01-16T04:53:58;-3.40;99.90
2489;DHT22;1255;48.716;9.124;2024-01-16T04:56:25;-3.50;99.90
2489;DHT22;1255;48.716;9.124;2024-01-16T04:58:53;-3.50;99.90
2489;DHT22;1255;48.716;9.124;2024-01-16T05:01:20;-3.50;99.90
2489;DHT22;1255;48.716;9.124;2024-01-16T05:03:47;-3.50;99.90
2489;DHT22;1255;48.716;9.124;2024-01-16T05:06:13;-3.50;99.90
2489;DHT22;1255;48.716;9.124;2024-01-16T05:08:41;-3.60;99.90
2489;DHT22;1255;48.716;9.124;2024-01-16T05:11:08;-3.60;99.90
2489;DHT22;1255;48.716;9.124;2024-01-16T05:13:35;-3.60;99.90
2489;DHT22;1255;48.716;9.124;2024-01-16T05:16:03;-3.70;99.90
2489;DHT22;1255;48.716;9.124;2024-01-16T05:18:30;-3.70;99.90
2489;DHT22;1255;48.716;9.124;2024-01-16T05:20:58;-3.70;99.90
2489;DHT22;1255;48.716;9.124;2024-01-16T05:23:24;-3.80;99.90
2489;DHT22;1255;48.716;9.124;2024-01-16T05:25:51;-3.90;99.90
2489;DHT22;1255;48.716;9.124;2024-01-16T05:28:18;-4.00;99.90
2489;DHT22;1255;48.716;9.124;2024-01-16T05:30:45;-4.10;99.90
2489;DHT22;1255;48.716;9.124;2024-01-16T05:33:13;-4.20;99.90
2489;DHT22;1255;48.716;9.124;2024-01-16T05:35:39;-4.20;99.90
2489;DHT22;1255;48.716;9.124;2024-01-16T05:38:06;-4.20;99.90
2489;DHT22;1255;48.716;9.124;2024-01-16T05:40:33;-4.10;99.90
2489;DHT22;1255;48.716;9.124;2024-01-16T05:43:00;-4.10;99.90
2489;DHT22;1255;48.716;9.124;2024-01-16T05:45:27;-4.10;99.90
2489;DHT22;1255;48.716;9.124;2024-01-16T05:47:54;-4.10;99.90
2489;DHT22;1255;48.716;9.124;2024-01-16T05:50:23;-4.20;99.90
2489;DHT22;1255;48.716;9.124;2024-01-16T05:52:50;-4.20;99.90
2489;DHT22;1255;48.716;9.124;2024-01-16T05:55:17;-4.20;99.90
2489;DHT22;1255;48.716;9.124;2024-01-16T05:57:43;-4.20;99.90
2489;DHT22;1255;48.716;9.124;2024-01-16T06:00:11;-4.20;99.90
2489;DHT22;1255;48.716;9.124;2024-01-16T06:02:38;-4.20;99.90
2489;DHT22;1255;48.716;9.124;2024-01-16T06:05:07;-4.20;99.90
2489;DHT22;1255;48.716;9.124;2024-01-16T06:07:35;-4.20;99.90
2489;DHT22;1255;48.716;9.124;2024-01-16T06:10:02;-4.10;99.90
2489;DHT22;1255;48.716;9.124;2024-01-16T06:12:28;-4.20;99.90
2489;DHT22;1255;48.716;9.124;2024-01-16T06:14:55;-4.10;99.90
2489;DHT22;1255;48.716;9.124;2024-01-16T06:17:23;-4.10;99.90
2489;DHT22;1255;48.716;9.124;2024-01-16T06:19:50;-4.00;99.90
2489;DHT22;1255;48.716;9.124;2024-01-16T06:22:17;-4.00;99.90
2489;DHT22;1255;48.716;9.124;2024-01-16T06:24:45;-4.00;99.90
2489;DHT22;1255;48.716;9.124;2024-01-16T06:27:12;-3.90;99.90
2489;DHT22;1255;48.716;9.124;2024-01-16T06:29:44;-3.90;99.90
2489;DHT22;1255;48.716;9.124;2024-01-16T06:32:11;-4.00;99.90
2489;DHT22;1255;48.716;9.124;2024-01-16T06:34:38;-3.90;99.90
2489;DHT22;1255;48.716;9.124;2024-01-16T06:37:05;-3.90;99.90
2489;DHT22;1255;48.716;9.124;2024-01-16T06:39:32;-3.90;99.90
2489;DHT22;1255;48.716;9.124;2024-01-16T06:42:00;-3.90;99.90
2489;DHT22;1255;48.716;9.124;2024-01-16T06:44:27;-3.90;99.90
2489;DHT22;1255;48.716;9.124;2024-01-16T06:46:54;-3.80;99.90
2489;DHT22;1255;48.716;9.124;2024-01-16T06:49:20;-3.80;99.90
2489;DHT22;1255;48.716;9.124;2024-01-16T06:51:47;-3.80;99.90
2489;DHT22;1255;48.716;9.124;2024-01-16T06:54:14;-3.80;99.90
2489;DHT22;1255;48.716;9.124;2024-01-16T06:56:40;-3.80;99.90
2489;DHT22;1255;48.716;9.124;2024-01-16T06:59:08;-3.70;99.90
2489;DHT22;1255;48.716;9.124;2024-01-16T07:01:35;-3.80;99.90
2489;DHT22;1255;48.716;9.124;2024-01-16T07:04:02;-3.80;99.90
2489;DHT22;1255;48.716;9.124;2024-01-16T07:06:29;-3.80;99.90
2489;DHT22;1255;48.716;9.124;2024-01-16T07:08:55;-3.80;99.90
2489;DHT22;1255;48.716;9.124;2024-01-16T07:11:22;-3.80;99.90
2489;DHT22;1255;48.716;9.124;2024-01-16T07:13:49;-3.70;99.90
2489;DHT22;1255;48.716;9.124;2024-01-16T07:16:17;-3.70;99.90
2489;DHT22;1255;48.716;9.124;2024-01-16T07:18:44;-3.70;99.90
2489;DHT22;1255;48.716;9.124;2024-01-16T07:21:17;-3.70;99.90
2489;DHT22;1255;48.716;9.124;2024-01-16T07:23:44;-3.70;99.90
2489;DHT22;1255;48.716;9.124;2024-01-16T07:26:11;-3.70;99.90
2489;DHT22;1255;48.716;9.124;2024-01-16T07:28:38;-3.70;99.90
2489;DHT22;1255;48.716;9.124;2024-01-16T07:31:05;-3.70;99.90
2489;DHT22;1255;48.716;9.124;2024-01-16T07:33:33;-3.70;99.90
2489;DHT22;1255;48.716;9.124;2024-01-16T07:36:00;-3.70;99.90
2489;DHT22;1255;48.716;9.124;2024-01-16T07:38:27;-3.70;99.90
2489;DHT22;1255;48.716;9.124;2024-01-16T07:40:53;-3.70;99.90
2489;DHT22;1255;48.716;9.124;2024-01-16T07:43:21;-3.70;99.90
2489;DHT22;1255;48.716;9.124;2024-01-16T07:45:48;-3.60;99.90
2489;DHT22;1255;48.716;9.124;2024-01-16T07:48:15;-3.60;99.90
2489;DHT22;1255;48.716;9.124;2024-01-16T07:50:43;-3.50;99.90
2489;DHT22;1255;48.716;9.124;2024-01-16T07:53:11;-3.50;99.90
2489;DHT22;1255;48.716;9.124;2024-01-16T07:55:38;-3.40;99.90
2489;DHT22;1255;48.716;9.124;2024-01-16T07:58:04;-3.30;99.90
2489;DHT22;1255;48.716;9.124;2024-01-16T08:00:32;-3.30;99.90
2489;DHT22;1255;48.716;9.124;2024-01-16T08:02:58;-3.30;99.90
2489;DHT22;1255;48.716;9.124;2024-01-16T08:05:25;-3.20;99.90
2489;DHT22;1255;48.716;9.124;2024-01-16T08:07:54;-3.10;99.90
2489;DHT22;1255;48.716;9.124;2024-01-16T08:10:21;-3.10;99.90
2489;DHT22;1255;48.716;9.124;2024-01-16T08:12:47;-3.00;99.90
2489;DHT22;1255;48.716;9.124;2024-01-16T08:15:14;-2.90;99.90
2489;DHT22;1255;48.716;9.124;2024-01-16T08:17:41;-2.90;99.90
2489;DHT22;1255;48.716;9.124;2024-01-16T08:20:09;-2.70;99.90
2489;DHT22;1255;48.716;9.124;2024-01-16T08:22:36;-2.60;99.90
2489;DHT22;1255;48.716;9.124;2024-01-16T08:25:07;-2.60;99.90
2489;DHT22;1255;48.716;9.124;2024-01-16T08:27:33;-2.60;99.90
2489;DHT22;1255;48.716;9.124;2024-01-16T08:30:03;-2.60;99.90
2489;DHT22;1255;48.716;9.124;2024-01-16T08:32:30;-2.50;99.90
2489;DHT22;1255;48.716;9.124;2024-01-16T08:34:57;-2.50;99.90
2489;DHT22;1255;48.716;9.124;2024-01-16T08:37:24;-2.40;99.90
2489;DHT22;1255;48.716;9.124;2024-01-16T08:39:51;-2.40;99.90
2489;DHT22;1255;48.716;9.124;2024-01-16T08:42:20;-2.30;99.90
2489;DHT22;1255;48.716;9.124;2024-01-16T08:44:46;-2.30;99.90
2489;DHT22;1255;48.716;9.124;2024-01-16T08:47:13;-2.20;99.90
2489;DHT22;1255;48.716;9.124;2024-01-16T08:49:40;-2.10;99.90
2489;DHT22;1255;48.716;9.124;2024-01-16T08:52:07;-1.90;99.90
2489;DHT22;1255;48.716;9.124;2024-01-16T08:54:33;-1.80;99.90
2489;DHT22;1255;48.716;9.124;2024-01-16T08:57:00;-1.70;99.90
2489;DHT22;1255;48.716;9.124;2024-01-16T08:59:28;-1.70;99.90
2489;DHT22;1255;48.716;9.124;2024-01-16T09:01:55;-1.70;99.90
2489;DHT22;1255;48.716;9.124;2024-01-16T09:04:22;-1.70;99.90
2489;DHT22;1255;48.716;9.124;2024-01-16T09:06:49;-1.70;99.90
2489;DHT22;1255;48.716;9.124;2024-01-16T09:09:16;-1.60;99.90
2489;DHT22;1255;48.716;9.124;2024-01-16T09:11:43;-1.40;99.90
2489;DHT22;1255;48.716;9.124;2024-01-16T09:14:10;-1.30;99.90
2489;DHT22;1255;48.716;9.124;2024-01-16T09:16:38;-1.20;99.90
2489;DHT22;1255;48.716;9.124;2024-01-16T09:19:06;-1.20;99.90
2489;DHT22;1255;48.716;9.124;2024-01-16T09:21:34;-1.00;99.90
2489;DHT22;1255;48.716;9.124;2024-01-16T09:24:01;-0.80;99.90
2489;DHT22;1255;48.716;9.124;2024-01-16T09:26:28;-0.70;99.90
2489;DHT22;1255;48.716;9.124;2024-01-16T09:28:57;-0.60;99.90
2489;DHT22;1255;48.716;9.124;2024-01-16T09:31:24;-0.40;99.90
2489;DHT22;1255;48.716;9.124;2024-01-16T09:33:52;0.20;99.90
2489;DHT22;1255;48.716;9.124;2024-01-16T09:36:19;0.90;99.90
2489;DHT22;1255;48.716;9.124;2024-01-16T09:38:46;1.30;99.90
2489;DHT22;1255;48.716;9.124;2024-01-16T09:41:13;1.70;99.90
2489;DHT22;1255;48.716;9.124;2024-01-16T09:43:41;2.20;99.90
2489;DHT22;1255;48.716;9.124;2024-01-16T09:46:08;2.20;99.90
2489;DHT22;1255;48.716;9.124;2024-01-16T09:48:37;2.40;99.90
2489;DHT22;1255;48.716;9.124;2024-01-16T09:51:06;2.50;99.90
2489;DHT22;1255;48.716;9.124;2024-01-16T09:53:33;3.00;99.90
2489;DHT22;1255;48.716;9.124;2024-01-16T09:56:02;3.60;99.90
2489;DHT22;1255;48.716;9.124;2024-01-16T09:58:34;4.20;99.60
2489;DHT22;1255;48.716;9.124;2024-01-16T10:01:03;5.20;98.20
2489;DHT22;1255;48.716;9.124;2024-01-16T10:03:31;5.70;97.20
2489;DHT22;1255;48.716;9.124;2024-01-16T10:06:03;6.10;95.80
2489;DHT22;1255;48.716;9.124;2024-01-16T10:08:32;6.50;95.40
2489;DHT22;1255;48.716;9.124;2024-01-16T10:10:58;7.30;95.20
2489;DHT22;1255;48.716;9.124;2024-01-16T10:13:26;8.40;93.90
2489;DHT22;1255;48.716;9.124;2024-01-16T10:15:53;9.60;92.50
2489;DHT22;1255;48.716;9.124;2024-01-16T10:18:24;10.30;90.40
2489;DHT22;1255;48.716;9.124;2024-01-16T10:20:51;10.50;90.20
2489;DHT22;1255;48.716;9.124;2024-01-16T10:23:24;10.90;89.30
2489;DHT22;1255;48.716;9.124;2024-01-16T10:26:10;11.60;87.40
2489;DHT22;1255;48.716;9.124;2024-01-16T10:28:38;12.80;86.00
2489;DHT22;1255;48.716;9.124;2024-01-16T10:31:06;14.40;83.20
2489;DHT22;1255;48.716;9.124;2024-01-16T10:33:33;15.60;79.70
2489;DHT22;1255;48.716;9.124;2024-01-16T10:36:08;15.70;77.60
2489;DHT22;1255;48.716;9.124;2024-01-16T10:38:36;15.50;76.80
2489;DHT22;1255;48.716;9.124;2024-01-16T10:41:12;15.00;75.50
2489;DHT22;1255;48.716;9.124;2024-01-16T10:43:39;13.40;75.70
2489;DHT22;1255;48.716;9.124;2024-01-16T10:46:13;12.40;77.10
2489;DHT22;1255;48.716;9.124;2024-01-16T10:48:42;12.50;78.70
2489;DHT22;1255;48.716;9.124;2024-01-16T10:51:11;12.70;77.70
2489;DHT22;1255;48.716;9.124;2024-01-16T10:53:42;14.10;76.40
2489;DHT22;1255;48.716;9.124;2024-01-16T10:56:12;15.60;74.30
2489;DHT22;1255;48.716;9.124;2024-01-16T10:58:42;16.60;72.80
2489;DHT22;1255;48.716;9.124;2024-01-16T11:01:15;17.40;70.60
2489;DHT22;1255;48.716;9.124;2024-01-16T11:03:46;17.40;70.60
2489;DHT22;1255;48.716;9.124;2024-01-16T11:06:15;18.10;67.50
2489;DHT22;1255;48.716;9.124;2024-01-16T11:08:42;18.80;67.40
2489;DHT22;1255;48.716;9.124;2024-01-16T11:11:11;18.60;66.00
2489;DHT22;1255;48.716;9.124;2024-01-16T11:13:38;17.10;66.10
2489;DHT22;1255;48.716;9.124;2024-01-16T11:16:08;15.40;68.70
2489;DHT22;1255;48.716;9.124;2024-01-16T11:18:37;14.60;69.80
2489;DHT22;1255;48.716;9.124;2024-01-16T11:21:05;14.10;70.80
2489;DHT22;1255;48.716;9.124;2024-01-16T11:23:33;14.20;71.00
2489;DHT22;1255;48.716;9.124;2024-01-16T11:26:26;14.30;70.70
2489;DHT22;1255;48.716;9.124;2024-01-16T11:28:54;15.00;71.00
2489;DHT22;1255;48.716;9.124;2024-01-16T11:31:28;16.00;69.20
2489;DHT22;1255;48.716;9.124;2024-01-16T11:33:55;17.00;68.50
2489;DHT22;1255;48.716;9.124;2024-01-16T11:36:50;18.10;66.50
2489;DHT22;1255;48.716;9.124;2024-01-16T11:39:20;18.70;65.40
2489;DHT22;1255;48.716;9.124;2024-01-16T11:41:55;18.70;66.10
2489;DHT22;1255;48.716;9.124;2024-01-16T11:44:45;18.50;65.80
2489;DHT22;1255;48.716;9.124;2024-01-16T11:47:16;16.40;65.50
2489;DHT22;1255;48.716;9.124;2024-01-16T11:49:43;15.10;65.00
2489;DHT22;1255;48.716;9.124;2024-01-16T11:52:10;13.70;66.70
2489;DHT22;1255;48.716;9.124;2024-01-16T11:54:38;12.00;68.00
2489;DHT22;1255;48.716;9.124;2024-01-16T11:57:45;11.50;71.30
2489;DHT22;1255;48.716;9.124;2024-01-16T12:00:19;11.20;73.20
2489;DHT22;1255;48.716;9.124;2024-01-16T12:02:52;10.70;70.50
2489;DHT22;1255;48.716;9.124;2024-01-16T12:05:20;10.00;71.50
2489;DHT22;1255;48.716;9.124;2024-01-16T12:07:47;9.30;73.40
2489;DHT22;1255;48.716;9.124;2024-01-16T12:10:15;8.90;75.20
2489;DHT22;1255;48.716;9.124;2024-01-16T12:12:42;9.30;75.50
2489;DHT22;1255;48.716;9.124;2024-01-16T12:15:15;9.90;74.80
2489;DHT22;1255;48.716;9.124;2024-01-16T12:17:58;10.30;73.60
2489;DHT22;1255;48.716;9.124;2024-01-16T12:20:26;10.70;72.30
2489;DHT22;1255;48.716;9.124;2024-01-16T12:22:55;10.50;72.10
2489;DHT22;1255;48.716;9.124;2024-01-16T12:25:22;10.10;72.80
2489;DHT22;1255;48.716;9.124;2024-01-16T12:27:57;8.70;75.60
2489;DHT22;1255;48.716;9.124;2024-01-16T12:30:26;8.20;77.40
2489;DHT22;1255;48.716;9.124;2024-01-16T12:33:03;8.30;77.60
2489;DHT22;1255;48.716;9.124;2024-01-16T12:35:30;7.80;78.00
2489;DHT22;1255;48.716;9.124;2024-01-16T12:38:01;7.70;79.40
2489;DHT22;1255;48.716;9.124;2024-01-16T12:40:28;7.30;78.10
2489;DHT22;1255;48.716;9.124;2024-01-16T12:42:55;6.50;79.50
2489;DHT22;1255;48.716;9.124;2024-01-16T12:45:22;6.40;80.70
2489;DHT22;1255;48.716;9.124;2024-01-16T12:47:54;6.10;81.40
2489;DHT22;1255;48.716;9.124;2024-01-16T12:50:24;5.80;81.30
2489;DHT22;1255;48.716;9.124;2024-01-16T12:53:01;5.50;81.90
2489;DHT22;1255;48.716;9.124;2024-01-16T12:55:28;5.50;82.60
2489;DHT22;1255;48.716;9.124;2024-01-16T12:58:13;5.60;82.80
2489;DHT22;1255;48.716;9.124;2024-01-16T13:00:40;5.70;82.60
2489;DHT22;1255;48.716;9.124;2024-01-16T13:03:15;5.60;84.20
2489;DHT22;1255;48.716;9.124;2024-01-16T13:05:43;5.60;82.60
2489;DHT22;1255;48.716;9.124;2024-01-16T13:08:17;5.40;83.60
2489;DHT22;1255;48.716;9.124;2024-01-16T13:10:44;5.30;83.30
2489;DHT22;1255;48.716;9.124;2024-01-16T13:13:12;5.50;83.30
2489;DHT22;1255;48.716;9.124;2024-01-16T13:15:39;5.70;84.60
2489;DHT22;1255;48.716;9.124;2024-01-16T13:18:06;6.20;83.20
2489;DHT22;1255;48.716;9.124;2024-01-16T13:20:34;6.10;82.20
2489;DHT22;1255;48.716;9.124;2024-01-16T13:23:01;6.10;82.10
2489;DHT22;1255;48.716;9.124;2024-01-16T13:25:28;6.00;82.10
2489;DHT22;1255;48.716;9.124;2024-01-16T13:27:55;6.40;82.00
2489;DHT22;1255;48.716;9.124;2024-01-16T13:30:22;6.90;81.70
2489;DHT22;1255;48.716;9.124;2024-01-16T13:32:49;7.40;79.80
2489;DHT22;1255;48.716;9.124;2024-01-16T13:35:16;8.00;79.40
2489;DHT22;1255;48.716;9.124;2024-01-16T13:37:44;8.50;78.50
2489;DHT22;1255;48.716;9.124;2024-01-16T13:40:11;8.90;77.10
2489;DHT22;1255;48.716;9.124;2024-01-16T13:42:44;8.80;76.80
2489;DHT22;1255;48.716;9.124;2024-01-16T13:45:10;9.20;76.20
2489;DHT22;1255;48.716;9.124;2024-01-16T13:47:39;9.30;75.80
2489;DHT22;1255;48.716;9.124;2024-01-16T13:50:07;8.00;75.80
2489;DHT22;1255;48.716;9.124;2024-01-16T13:52:34;6.70;78.80
2489;DHT22;1255;48.716;9.124;2024-01-16T13:55:03;6.10;80.50
2489;DHT22;1255;48.716;9.124;2024-01-16T13:57:31;5.60;81.80
2489;DHT22;1255;48.716;9.124;2024-01-16T13:59:58;4.80;82.20
2489;DHT22;1255;48.716;9.124;2024-01-16T14:02:25;4.30;84.00
2489;DHT22;1255;48.716;9.124;2024-01-16T14:04:52;3.90;85.20
2489;DHT22;1255;48.716;9.124;2024-01-16T14:07:19;3.70;86.00
2489;DHT22;1255;48.716;9.124;2024-01-16T14:09:46;3.50;86.70
2489;DHT22;1255;48.716;9.124;2024-01-16T14:12:14;3.30;87.10
2489;DHT22;1255;48.716;9.124;2024-01-16T14:14:41;3.10;88.20
2489;DHT22;1255;48.716;9.124;2024-01-16T14:17:08;2.70;87.40
2489;DHT22;1255;48.716;9.124;2024-01-16T14:19:35;2.50;88.40
2489;DHT22;1255;48.716;9.124;2024-01-16T14:22:03;2.30;86.90
2489;DHT22;1255;48.716;9.124;2024-01-16T14:24:30;2.10;87.70
2489;DHT22;1255;48.716;9.124;2024-01-16T14:26:56;1.90;87.80
2489;DHT22;1255;48.716;9.124;2024-01-16T14:29:24;1.90;88.60
2489;DHT22;1255;48.716;9.124;2024-01-16T14:31:52;1.80;88.80
2489;DHT22;1255;48.716;9.124;2024-01-16T14:34:21;1.80;90.00
2489;DHT22;1255;48.716;9.124;2024-01-16T14:36:50;1.70;88.00
2489;DHT22;1255;48.716;9.124;2024-01-16T14:39:18;1.60;90.00
2489;DHT22;1255;48.716;9.124;2024-01-16T14:41:50;1.60;90.00
2489;DHT22;1255;48.716;9.124;2024-01-16T14:44:17;1.50;89.50
2489;DHT22;1255;48.716;9.124;2024-01-16T14:46:45;1.60;89.60
2489;DHT22;1255;48.716;9.124;2024-01-16T14:49:12;1.50;89.60
2489;DHT22;1255;48.716;9.124;2024-01-16T14:51:38;1.60;90.10
2489;DHT22;1255;48.716;9.124;2024-01-16T14:54:05;1.50;90.30
2489;DHT22;1255;48.716;9.124;2024-01-16T14:56:32;1.40;90.10
2489;DHT22;1255;48.716;9.124;2024-01-16T14:58:59;1.40;90.40
2489;DHT22;1255;48.716;9.124;2024-01-16T15:01:25;1.30;90.40
2489;DHT22;1255;48.716;9.124;2024-01-16T15:03:53;1.20;90.30
2489;DHT22;1255;48.716;9.124;2024-01-16T15:06:21;1.10;91.10
2489;DHT22;1255;48.716;9.124;2024-01-16T15:08:48;1.00;90.90
2489;DHT22;1255;48.716;9.124;2024-01-16T15:11:15;0.90;91.00
2489;DHT22;1255;48.716;9.124;2024-01-16T15:13:42;0.90;91.90
2489;DHT22;1255;48.716;9.124;2024-01-16T15:16:10;0.70;92.10
2489;DHT22;1255;48.716;9.124;2024-01-16T15:18:37;0.60;92.30
2489;DHT22;1255;48.716;9.124;2024-01-16T15:21:04;0.50;92.50
2489;DHT22;1255;48.716;9.124;2024-01-16T15:23:31;0.40;92.70
2489;DHT22;1255;48.716;9.124;2024-01-16T15:25:58;0.30;92.60
2489;DHT22;1255;48.716;9.124;2024-01-16T15:28:28;0.30;92.90
2489;DHT22;1255;48.716;9.124;2024-01-16T15:30:55;0.20;93.30
2489;DHT22;1255;48.716;9.124;2024-01-16T15:33:21;0.10;93.50
2489;DHT22;1255;48.716;9.124;2024-01-16T15:35:48;0.00;93.70
2489;DHT22;1255;48.716;9.124;2024-01-16T15:38:16;-0.10;93.50
2489;DHT22;1255;48.716;9.124;2024-01-16T15:40:43;-0.10;93.90
2489;DHT22;1255;48.716;9.124;2024-01-16T15:43:10;-0.30;94.20
2489;DHT22;1255;48.716;9.124;2024-01-16T15:45:37;-0.30;94.60
2489;DHT22;1255;48.716;9.124;2024-01-16T15:48:04;-0.40;94.50
2489;DHT22;1255;48.716;9.124;2024-01-16T15:50:31;-0.60;95.10
2489;DHT22;1255;48.716;9.124;2024-01-16T15:52:58;-0.70;95.30
2489;DHT22;1255;48.716;9.124;2024-01-16T15:55:26;-0.80;95.50
2489;DHT22;1255;48.716;9.124;2024-01-16T15:57:52;-0.90;95.70
2489;DHT22;1255;48.716;9.124;2024-01-16T16:00:20;-1.00;96.00
2489;DHT22;1255;48.716;9.124;2024-01-16T16:02:48;-1.20;96.10
2489;DHT22;1255;48.716;9.124;2024-01-16T16:05:15;-1.30;96.20
2489;DHT22;1255;48.716;9.124;2024-01-16T16:07:42;-1.40;96.20
2489;DHT22;1255;48.716;9.124;2024-01-16T16:10:09;-1.50;96.20